createdAt,value
2019-02-24T00:02:13.109Z,0.70
2019-02-24T00:04:42.327Z,0.70
2019-02-24T00:07:11.329Z,0.60
2019-02-24T00:09:40.427Z,0.70
2019-02-24T00:12:09.534Z,0.50
2019-02-24T00:14:38.682Z,0.50
2019-02-24T00:17:07.938Z,0.60
2019-02-24T00:19:37.181Z,0.60
2019-02-24T00:22:06.752Z,0.50
2019-02-24T00:24:36.275Z,0.50
2019-02-24T00:27:06.254Z,0.60
2019-02-24T00:29:38.032Z,0.60
2019-02-24T00:32:07.190Z,0.60
2019-02-24T00:34:36.452Z,0.60
2019-02-24T00:37:06.072Z,0.60
2019-02-24T00:39:35.683Z,0.70
2019-02-24T00:42:05.339Z,0.60
2019-02-24T00:44:35.224Z,0.60
2019-02-24T00:47:04.433Z,0.50
2019-02-24T00:49:33.776Z,0.50
2019-02-24T00:52:03.230Z,0.50
2019-02-24T00:54:32.695Z,0.50
2019-02-24T00:57:02.292Z,0.50
2019-02-24T00:59:31.647Z,0.50
2019-02-24T01:02:01.331Z,0.50
2019-02-24T01:04:33.803Z,0.50
2019-02-24T01:07:02.952Z,0.50
2019-02-24T01:09:33.363Z,0.40
2019-02-24T01:12:02.633Z,0.50
2019-02-24T01:14:31.904Z,0.40
2019-02-24T01:17:02.345Z,0.40
2019-02-24T01:19:31.545Z,0.40
2019-02-24T01:22:01.373Z,0.40
2019-02-24T01:24:32.651Z,0.40
2019-02-24T01:27:02.407Z,0.40
2019-02-24T01:29:31.558Z,0.50
2019-02-24T01:32:00.714Z,0.40
2019-02-24T01:34:30.083Z,0.40
2019-02-24T01:36:59.209Z,0.40
2019-02-24T01:39:28.463Z,0.40
2019-02-24T01:41:57.862Z,0.40
2019-02-24T01:44:27.162Z,0.30
2019-02-24T01:46:56.808Z,0.40
2019-02-24T01:49:26.083Z,0.40
2019-02-24T01:51:55.643Z,0.30
2019-02-24T01:54:24.821Z,0.30
2019-02-24T01:56:54.094Z,0.20
2019-02-24T01:59:23.504Z,0.20
2019-02-24T02:01:52.853Z,0.20
2019-02-24T02:04:21.952Z,0.20
2019-02-24T02:06:51.915Z,0.20
2019-02-24T02:09:22.004Z,0.30
2019-02-24T02:11:51.652Z,0.30
2019-02-24T02:14:20.827Z,0.20
2019-02-24T02:16:51.494Z,0.20
2019-02-24T02:19:21.719Z,0.20
2019-02-24T02:21:51.242Z,0.20
2019-02-24T02:24:20.537Z,0.20
2019-02-24T02:26:49.908Z,0.20
2019-02-24T02:29:19.309Z,0.10
2019-02-24T02:31:48.713Z,0.10
2019-02-24T02:34:18.134Z,0.10
2019-02-24T02:36:47.425Z,0.20
2019-02-24T02:39:16.633Z,0.10
2019-02-24T02:41:46.744Z,0.20
2019-02-24T02:44:18.617Z,0.10
2019-02-24T02:46:48.272Z,0.00
2019-02-24T02:49:17.709Z,0.00
2019-02-24T02:51:47.251Z,0.00
2019-02-24T02:54:17.007Z,0.10
2019-02-24T02:56:46.407Z,0.00
2019-02-24T02:59:15.519Z,0.10
2019-02-24T03:01:46.676Z,0.00
2019-02-24T03:04:16.901Z,0.10
2019-02-24T03:06:57.662Z,-0.10
2019-02-24T03:09:29.847Z,0.00
2019-02-24T03:11:59.144Z,-0.10
2019-02-24T03:14:29.244Z,0.00
2019-02-24T03:16:59.016Z,0.00
2019-02-24T03:19:28.545Z,-0.10
2019-02-24T03:21:58.155Z,-0.10
2019-02-24T03:24:27.529Z,-0.10
2019-02-24T03:26:57.043Z,-0.10
2019-02-24T03:29:29.382Z,-0.10
2019-02-24T03:31:58.415Z,-0.20
2019-02-24T03:34:27.918Z,-0.20
2019-02-24T03:36:57.584Z,-0.30
2019-02-24T03:39:27.587Z,-0.20
2019-02-24T03:41:56.722Z,-0.20
2019-02-24T03:44:26.169Z,-0.20
2019-02-24T03:46:55.421Z,-0.20
2019-02-24T03:49:24.691Z,-0.20
2019-02-24T03:51:54.349Z,-0.20
2019-02-24T03:54:23.416Z,-0.10
2019-02-24T03:56:52.492Z,-0.20
2019-02-24T03:59:21.627Z,-0.20
2019-02-24T04:01:50.835Z,-0.20
2019-02-24T04:04:19.957Z,-0.20
2019-02-24T04:06:48.955Z,-0.30
2019-02-24T04:09:18.000Z,-0.30
2019-02-24T04:11:47.065Z,-0.20
2019-02-24T04:14:16.222Z,-0.30
2019-02-24T04:16:45.409Z,-0.30
2019-02-24T04:19:14.438Z,-0.40
2019-02-24T04:21:43.880Z,-0.40
2019-02-24T04:24:12.901Z,-0.30
2019-02-24T04:26:41.987Z,-0.30
2019-02-24T04:29:11.055Z,-0.30
2019-02-24T04:31:40.157Z,-0.30
2019-02-24T04:34:09.394Z,-0.40
2019-02-24T04:36:38.483Z,-0.30
2019-02-24T04:39:07.581Z,-0.30
2019-02-24T04:41:36.662Z,-0.30
2019-02-24T04:44:05.745Z,-0.30
2019-02-24T04:46:34.765Z,-0.30
2019-02-24T04:49:03.742Z,-0.30
2019-02-24T04:51:32.846Z,-0.30
2019-02-24T04:54:01.912Z,-0.30
2019-02-24T04:56:31.029Z,-0.40
2019-02-24T04:59:00.091Z,-0.30
2019-02-24T05:01:29.186Z,-0.30
2019-02-24T05:03:58.344Z,-0.40
2019-02-24T05:06:27.441Z,-0.40
2019-02-24T05:08:56.587Z,-0.40
2019-02-24T05:11:25.726Z,-0.40
2019-02-24T05:13:54.898Z,-0.40
2019-02-24T05:16:23.870Z,-0.50
2019-02-24T05:18:52.950Z,-0.40
2019-02-24T05:21:21.987Z,-0.40
2019-02-24T05:23:51.058Z,-0.50
2019-02-24T05:26:20.122Z,-0.40
2019-02-24T05:28:49.231Z,-0.50
2019-02-24T05:31:18.454Z,-0.50
2019-02-24T05:33:47.502Z,-0.50
2019-02-24T05:36:16.583Z,-0.50
2019-02-24T05:38:45.621Z,-0.50
2019-02-24T05:41:14.590Z,-0.50
2019-02-24T05:43:43.747Z,-0.50
2019-02-24T05:46:12.803Z,-0.50
2019-02-24T05:48:41.779Z,-0.50
2019-02-24T05:51:10.838Z,-0.50
2019-02-24T05:53:39.927Z,-0.50
2019-02-24T05:56:08.994Z,-0.50
2019-02-24T05:58:38.003Z,-0.60
2019-02-24T06:01:07.074Z,-0.50
2019-02-24T06:03:36.210Z,-0.50
2019-02-24T06:06:05.267Z,-0.50
2019-02-24T06:08:34.355Z,-0.40
2019-02-24T06:11:03.542Z,-0.40
2019-02-24T06:13:32.678Z,-0.50
2019-02-24T06:16:01.757Z,-0.40
2019-02-24T06:18:30.819Z,-0.50
2019-02-24T06:21:02.530Z,-0.60
2019-02-24T06:23:31.766Z,-0.70
2019-02-24T06:26:00.850Z,-0.60
2019-02-24T06:28:29.958Z,-0.60
2019-02-24T06:30:58.993Z,-0.70
2019-02-24T06:33:27.988Z,-0.70
2019-02-24T06:35:56.989Z,-0.60
2019-02-24T06:38:26.168Z,-0.60
2019-02-24T06:40:55.144Z,-0.60
2019-02-24T06:43:24.115Z,-0.50
2019-02-24T06:45:53.213Z,-0.50
2019-02-24T06:48:22.274Z,-0.40
2019-02-24T06:51:00.654Z,-0.40
2019-02-24T06:53:29.685Z,-0.40
2019-02-24T06:55:58.774Z,-0.40
2019-02-24T06:58:27.892Z,-0.30
2019-02-24T07:00:56.937Z,-0.30
2019-02-24T07:03:26.071Z,-0.30
2019-02-24T07:05:55.075Z,-0.20
2019-02-24T07:08:24.048Z,-0.20
2019-02-24T07:10:53.001Z,-0.20
2019-02-24T07:13:21.999Z,-0.10
2019-02-24T07:15:51.184Z,-0.10
2019-02-24T07:18:20.307Z,-0.10
2019-02-24T07:20:49.477Z,-0.10
2019-02-24T07:23:18.746Z,0.00
2019-02-24T07:25:48.012Z,0.00
2019-02-24T07:28:17.156Z,0.00
2019-02-24T07:30:46.224Z,0.10
2019-02-24T07:33:15.303Z,0.10
2019-02-24T07:35:44.335Z,0.20
2019-02-24T07:38:13.323Z,0.20
2019-02-24T07:40:42.464Z,0.20
2019-02-24T07:43:11.535Z,0.30
2019-02-24T07:45:40.521Z,0.30
2019-02-24T07:48:09.679Z,0.40
2019-02-24T07:50:39.474Z,0.40
2019-02-24T07:53:11.411Z,0.40
2019-02-24T07:55:40.708Z,0.50
2019-02-24T07:58:09.823Z,0.50
2019-02-24T08:00:39.295Z,0.60
2019-02-24T08:03:08.393Z,0.60
2019-02-24T08:05:37.872Z,0.70
2019-02-24T08:08:16.063Z,0.70
2019-02-24T08:10:37.914Z,0.70
2019-02-24T08:13:07.259Z,0.70
2019-02-24T08:15:36.523Z,0.80
2019-02-24T08:18:05.751Z,0.90
2019-02-24T08:20:35.389Z,0.90
2019-02-24T08:23:04.601Z,1.00
2019-02-24T08:25:33.830Z,1.10
2019-02-24T08:28:03.227Z,1.20
2019-02-24T08:30:41.021Z,1.40
2019-02-24T08:33:03.136Z,1.60
2019-02-24T08:35:32.203Z,1.80
2019-02-24T08:38:01.187Z,2.00
2019-02-24T08:40:30.273Z,2.20
2019-02-24T08:42:59.295Z,2.30
2019-02-24T08:45:28.374Z,2.50
2019-02-24T08:47:57.352Z,2.70
2019-02-24T08:50:26.427Z,3.00
2019-02-24T08:52:55.480Z,3.10
2019-02-24T08:55:24.610Z,3.30
2019-02-24T08:57:53.606Z,3.50
2019-02-24T09:00:22.574Z,3.60
2019-02-24T09:02:52.598Z,3.80
2019-02-24T09:05:21.913Z,4.00
2019-02-24T09:07:50.986Z,4.20
2019-02-24T09:10:20.093Z,4.40
2019-02-24T09:12:49.186Z,4.60
2019-02-24T09:15:18.436Z,4.80
2019-02-24T09:17:47.531Z,5.00
2019-02-24T09:20:16.528Z,5.20
2019-02-24T09:22:45.727Z,5.30
2019-02-24T09:25:14.793Z,5.50
2019-02-24T09:27:43.873Z,5.60
2019-02-24T09:30:13.049Z,5.80
2019-02-24T09:32:42.129Z,5.90
2019-02-24T09:35:11.160Z,6.00
2019-02-24T09:37:40.311Z,6.10
2019-02-24T09:40:09.909Z,6.20
2019-02-24T09:42:39.003Z,6.30
2019-02-24T09:45:08.563Z,6.40
2019-02-24T09:47:46.355Z,6.50
2019-02-24T09:50:08.660Z,6.50
2019-02-24T09:52:37.643Z,6.60
2019-02-24T09:55:06.773Z,6.70
2019-02-24T09:57:37.136Z,6.70
2019-02-24T10:00:07.582Z,6.80
2019-02-24T10:02:36.609Z,6.90
2019-02-24T10:05:05.879Z,6.90
2019-02-24T10:07:35.040Z,7.00
2019-02-24T10:10:04.300Z,7.00
2019-02-24T10:12:33.273Z,7.00
2019-02-24T10:15:02.260Z,7.10
2019-02-24T10:17:31.292Z,7.20
2019-02-24T10:20:00.364Z,7.20
2019-02-24T10:22:29.442Z,7.20
2019-02-24T10:24:58.534Z,7.30
2019-02-24T10:27:27.635Z,7.30
2019-02-24T10:29:56.617Z,7.30
2019-02-24T10:32:25.660Z,7.40
2019-02-24T10:34:54.721Z,7.40
2019-02-24T10:37:23.885Z,7.40
2019-02-24T10:39:52.872Z,7.50
2019-02-24T10:42:21.846Z,7.50
2019-02-24T10:44:51.083Z,7.50
2019-02-24T10:47:20.124Z,7.50
2019-02-24T10:49:49.090Z,7.50
2019-02-24T10:52:17.972Z,7.50
2019-02-24T10:54:47.113Z,7.50
2019-02-24T10:57:16.227Z,7.50
2019-02-24T10:59:45.332Z,7.50
2019-02-24T11:02:14.411Z,7.50
2019-02-24T11:04:43.454Z,7.60
2019-02-24T11:07:12.417Z,7.60
2019-02-24T11:09:41.377Z,7.60
2019-02-24T11:12:10.351Z,7.70
2019-02-24T11:14:39.470Z,7.60
2019-02-24T11:17:08.543Z,7.70
2019-02-24T11:19:37.758Z,7.70
2019-02-24T11:22:06.850Z,7.70
2019-02-24T11:24:35.838Z,7.70
2019-02-24T11:27:04.821Z,7.80
2019-02-24T11:29:34.015Z,7.90
2019-02-24T11:32:03.148Z,8.00
2019-02-24T11:34:32.370Z,8.00
2019-02-24T11:37:01.393Z,8.10
2019-02-24T11:39:30.733Z,8.20
2019-02-24T11:42:00.004Z,8.30
2019-02-24T11:44:28.948Z,8.30
2019-02-24T11:46:58.082Z,8.40
2019-02-24T11:49:27.131Z,8.30
2019-02-24T11:52:03.600Z,8.30
2019-02-24T11:54:26.909Z,8.30
2019-02-24T11:56:55.992Z,8.30
2019-02-24T11:59:25.190Z,8.30
2019-02-24T12:01:54.290Z,8.30
2019-02-24T12:04:23.362Z,8.40
2019-02-24T12:06:52.437Z,8.40
2019-02-24T12:09:21.498Z,8.40
2019-02-24T12:11:50.531Z,8.40
2019-02-24T12:14:19.579Z,8.50
2019-02-24T12:16:54.414Z,8.40
2019-02-24T12:19:24.284Z,8.50
2019-02-24T12:21:53.336Z,8.60
2019-02-24T12:24:22.443Z,8.60
2019-02-24T12:26:51.522Z,8.60
2019-02-24T12:29:20.502Z,8.70
2019-02-24T12:31:56.372Z,8.70
2019-02-24T12:34:20.365Z,8.70
2019-02-24T12:36:49.427Z,8.80
2019-02-24T12:39:18.468Z,8.80
2019-02-24T12:41:47.544Z,8.80
2019-02-24T12:44:16.593Z,8.90
2019-02-24T12:46:45.718Z,9.00
2019-02-24T12:49:16.313Z,9.00
2019-02-24T12:51:45.655Z,9.00
2019-02-24T12:54:14.759Z,9.00
2019-02-24T12:56:43.774Z,9.10
2019-02-24T12:59:12.944Z,9.10
2019-02-24T13:01:42.029Z,9.10
2019-02-24T13:04:11.158Z,9.10
2019-02-24T13:06:40.536Z,9.20
2019-02-24T13:09:11.219Z,9.20
2019-02-24T13:11:40.595Z,9.30
2019-02-24T13:14:09.741Z,9.30
2019-02-24T13:16:38.966Z,9.30
2019-02-24T13:19:08.202Z,9.30
2019-02-24T13:21:37.562Z,9.30
2019-02-24T13:24:07.161Z,9.30
2019-02-24T13:26:36.121Z,9.40
2019-02-24T13:29:05.436Z,9.40
2019-02-24T13:31:34.546Z,9.40
2019-02-24T13:34:03.887Z,9.40
2019-02-24T13:36:32.991Z,9.50
2019-02-24T13:39:01.989Z,9.50
2019-02-24T13:41:31.031Z,9.60
2019-02-24T13:44:00.010Z,9.60
2019-02-24T13:46:28.983Z,9.70
2019-02-24T13:48:58.032Z,10.10
2019-02-24T13:51:27.107Z,10.10
2019-02-24T13:53:56.202Z,10.00
2019-02-24T13:56:25.306Z,10.00
2019-02-24T13:58:54.370Z,10.00
2019-02-24T14:01:23.573Z,9.90
2019-02-24T14:03:53.261Z,9.90
2019-02-24T14:06:22.233Z,9.90
2019-02-24T14:08:51.295Z,9.90
2019-02-24T14:11:20.474Z,10.00
2019-02-24T14:13:49.683Z,10.00
2019-02-24T14:16:19.980Z,10.00
2019-02-24T14:18:50.032Z,10.00
2019-02-24T14:21:22.870Z,9.90
2019-02-24T14:23:52.195Z,9.90
2019-02-24T14:26:21.378Z,10.00
2019-02-24T14:28:51.104Z,10.10
2019-02-24T14:31:20.256Z,10.10
2019-02-24T14:33:49.372Z,10.10
2019-02-24T14:36:18.449Z,10.10
2019-02-24T14:38:47.511Z,10.10
2019-02-24T14:41:17.033Z,10.10
2019-02-24T14:43:46.015Z,10.10
2019-02-24T14:46:15.205Z,10.10
2019-02-24T14:48:44.846Z,10.10
2019-02-24T14:51:13.914Z,10.20
2019-02-24T14:53:43.034Z,10.30
2019-02-24T14:56:12.058Z,10.30
2019-02-24T14:58:41.037Z,10.40
2019-02-24T15:01:10.370Z,10.40
2019-02-24T15:03:39.471Z,10.40
2019-02-24T15:06:08.534Z,10.40
2019-02-24T15:08:37.585Z,10.40
2019-02-24T15:11:06.652Z,10.40
2019-02-24T15:13:35.719Z,10.30
2019-02-24T15:16:05.012Z,10.30
2019-02-24T15:18:34.024Z,10.30
2019-02-24T15:21:03.092Z,10.30
2019-02-24T15:23:32.298Z,10.30
2019-02-24T15:26:01.379Z,10.30
2019-02-24T15:28:30.423Z,10.40
2019-02-24T15:30:59.973Z,10.40
2019-02-24T15:33:29.206Z,10.40
2019-02-24T15:35:58.385Z,10.30
2019-02-24T15:38:27.471Z,10.40
2019-02-24T15:40:56.541Z,10.40
2019-02-24T15:43:25.552Z,10.50
2019-02-24T15:45:54.610Z,10.40
2019-02-24T15:48:23.572Z,10.40
2019-02-24T15:50:52.544Z,10.40
2019-02-24T15:53:21.593Z,10.40
2019-02-24T15:55:50.619Z,10.40
2019-02-24T15:58:19.733Z,10.40
2019-02-24T16:00:48.821Z,10.50
2019-02-24T16:03:18.038Z,10.40
2019-02-24T16:05:47.105Z,10.40
2019-02-24T16:08:16.243Z,10.40
2019-02-24T16:10:45.355Z,10.40
2019-02-24T16:13:16.933Z,10.30
2019-02-24T16:15:45.464Z,10.30
2019-02-24T16:18:14.569Z,10.30
2019-02-24T16:20:43.729Z,10.30
2019-02-24T16:23:12.731Z,10.20
2019-02-24T16:25:41.848Z,10.20
2019-02-24T16:28:10.884Z,10.10
2019-02-24T16:30:40.308Z,10.10
2019-02-24T16:33:10.829Z,10.10
2019-02-24T16:35:40.128Z,10.10
2019-02-24T16:38:09.190Z,10.00
2019-02-24T16:40:38.165Z,10.00
2019-02-24T16:43:07.221Z,9.90
2019-02-24T16:45:36.170Z,9.90
2019-02-24T16:48:05.295Z,9.80
2019-02-24T16:50:34.423Z,9.70
2019-02-24T16:53:03.364Z,9.70
2019-02-24T16:55:32.339Z,9.60
2019-02-24T16:58:01.496Z,9.60
2019-02-24T17:00:30.560Z,9.50
2019-02-24T17:02:59.601Z,9.40
2019-02-24T17:05:29.746Z,9.40
2019-02-24T17:07:58.761Z,9.30
2019-02-24T17:10:27.844Z,9.30
2019-02-24T17:12:56.825Z,9.30
2019-02-24T17:15:25.876Z,9.20
2019-02-24T17:17:54.953Z,9.10
2019-02-24T17:20:24.102Z,9.10
2019-02-24T17:22:53.131Z,9.10
2019-02-24T17:25:22.170Z,9.00
2019-02-24T17:27:51.279Z,9.00
2019-02-24T17:30:20.434Z,8.90
2019-02-24T17:32:49.470Z,8.80
2019-02-24T17:35:18.533Z,8.80
2019-02-24T17:37:47.521Z,8.80
2019-02-24T17:40:16.892Z,8.70
2019-02-24T17:42:46.056Z,8.70
2019-02-24T17:45:15.184Z,8.60
2019-02-24T17:47:44.234Z,8.60
2019-02-24T17:50:13.370Z,8.50
2019-02-24T17:52:42.486Z,8.40
2019-02-24T17:55:12.431Z,8.40
2019-02-24T17:57:41.490Z,8.30
2019-02-24T18:00:14.215Z,8.20
2019-02-24T18:02:43.201Z,8.10
2019-02-24T18:05:12.252Z,8.10
2019-02-24T18:07:41.222Z,8.10
2019-02-24T18:10:11.966Z,8.00
2019-02-24T18:12:41.031Z,8.00
2019-02-24T18:15:10.912Z,7.90
2019-02-24T18:17:40.037Z,7.90
2019-02-24T18:20:10.142Z,7.80
2019-02-24T18:22:39.328Z,7.70
2019-02-24T18:25:09.654Z,7.60
2019-02-24T18:27:38.764Z,7.60
2019-02-24T18:30:14.414Z,7.60
2019-02-24T18:32:43.518Z,7.50
2019-02-24T18:35:12.610Z,7.50
2019-02-24T18:37:42.571Z,7.40
2019-02-24T18:40:12.835Z,7.40
2019-02-24T18:42:42.019Z,7.30
2019-02-24T18:45:11.623Z,7.30
2019-02-24T18:47:40.730Z,7.20
2019-02-24T18:50:10.653Z,7.20
2019-02-24T18:52:40.235Z,7.20
2019-02-24T18:55:09.871Z,7.20
2019-02-24T18:57:39.368Z,7.20
2019-02-24T19:00:10.313Z,7.20
2019-02-24T19:02:39.803Z,7.10
2019-02-24T19:05:09.281Z,7.10
2019-02-24T19:07:38.442Z,7.10
2019-02-24T19:10:09.541Z,7.00
2019-02-24T19:12:38.858Z,7.00
2019-02-24T19:15:10.136Z,7.00
2019-02-24T19:17:39.349Z,6.90
2019-02-24T19:20:09.653Z,6.90
2019-02-24T19:22:39.225Z,6.90
2019-02-24T19:25:12.733Z,6.80
2019-02-24T19:27:41.813Z,6.70
2019-02-24T19:30:12.847Z,6.70
2019-02-24T19:32:42.452Z,6.70
2019-02-24T19:35:12.464Z,6.60
2019-02-24T19:37:41.958Z,6.60
2019-02-24T19:40:12.977Z,6.50
2019-02-24T19:42:42.068Z,6.50
2019-02-24T19:45:12.245Z,6.50
2019-02-24T19:47:41.259Z,6.40
2019-02-24T19:50:12.265Z,6.30
2019-02-24T19:52:41.323Z,6.30
2019-02-24T19:55:10.588Z,6.30
2019-02-24T19:57:40.175Z,6.20
2019-02-24T20:00:13.098Z,6.20
2019-02-24T20:02:42.844Z,6.20
2019-02-24T20:05:12.271Z,6.10
2019-02-24T20:07:41.926Z,6.10
2019-02-24T20:10:11.637Z,6.10
2019-02-24T20:12:41.448Z,6.10
2019-02-24T20:15:12.042Z,6.00
2019-02-24T20:17:41.147Z,6.00
2019-02-24T20:20:11.406Z,6.00
2019-02-24T20:22:40.601Z,6.00
2019-02-24T20:25:10.788Z,6.00
2019-02-24T20:27:39.884Z,5.90
2019-02-24T20:30:13.875Z,5.90
2019-02-24T20:35:30.701Z,5.80
2019-02-24T20:37:59.847Z,5.80
2019-02-24T20:40:29.720Z,5.80
2019-02-24T20:42:58.983Z,5.70
2019-02-24T20:45:29.357Z,5.70
2019-02-24T20:47:59.111Z,5.60
2019-02-24T20:50:28.538Z,5.60
2019-02-24T20:52:57.860Z,5.50
2019-02-24T20:55:26.900Z,5.50
2019-02-24T20:57:56.118Z,5.50
2019-02-24T21:00:28.813Z,5.50
2019-02-24T21:02:58.099Z,5.40
2019-02-24T21:05:27.346Z,5.30
2019-02-24T21:07:56.629Z,5.40
2019-02-24T21:10:25.936Z,5.30
2019-02-24T21:12:55.624Z,5.30
2019-02-24T21:15:24.854Z,5.20
2019-02-24T21:17:54.236Z,5.30
2019-02-24T21:20:26.098Z,5.20
2019-02-24T21:22:55.455Z,5.20
2019-02-24T21:25:25.062Z,5.20
2019-02-24T21:27:56.790Z,5.20
2019-02-24T21:30:26.107Z,5.10
2019-02-24T21:32:55.339Z,5.10
2019-02-24T21:35:24.520Z,5.10
2019-02-24T21:37:53.815Z,5.00
2019-02-24T21:40:23.725Z,5.00
2019-02-24T21:42:52.940Z,5.00
2019-02-24T21:45:24.119Z,5.00
2019-02-24T21:47:53.286Z,5.00
2019-02-24T21:50:22.513Z,5.00
2019-02-24T21:52:51.794Z,5.00
2019-02-24T21:55:21.060Z,4.90
2019-02-24T21:57:50.234Z,4.80
2019-02-24T22:00:20.325Z,4.80
2019-02-24T22:02:49.677Z,4.80
2019-02-24T22:05:20.390Z,4.80
2019-02-24T22:07:49.615Z,4.80
2019-02-24T22:10:18.878Z,4.70
2019-02-24T22:12:48.102Z,4.80
2019-02-24T22:15:18.226Z,4.80
2019-02-24T22:17:47.376Z,4.70
2019-02-24T22:20:16.861Z,4.70
2019-02-24T22:22:46.025Z,4.70
2019-02-24T22:25:15.632Z,4.60
2019-02-24T22:27:44.835Z,4.60
2019-02-24T22:30:15.284Z,4.50
2019-02-24T22:32:44.431Z,4.40
2019-02-24T22:35:14.297Z,4.30
2019-02-24T22:37:43.472Z,4.30
2019-02-24T22:40:12.827Z,4.40
2019-02-24T22:42:42.063Z,4.20
2019-02-24T22:45:13.540Z,4.20
2019-02-24T22:47:43.612Z,4.20
2019-02-24T22:50:13.545Z,4.10
2019-02-24T22:52:42.635Z,4.20
2019-02-24T22:55:12.071Z,4.10
2019-02-24T22:57:41.281Z,4.00
2019-02-24T23:01:01.661Z,4.10
2019-02-24T23:03:35.262Z,4.10
2019-02-24T23:06:04.532Z,4.10
2019-02-24T23:08:33.679Z,4.10
2019-02-24T23:11:02.929Z,4.10
2019-02-24T23:13:32.093Z,4.10
2019-02-24T23:16:01.302Z,4.00
2019-02-24T23:18:30.888Z,4.00
2019-02-24T23:20:59.893Z,4.00
2019-02-24T23:23:28.808Z,4.10
2019-02-24T23:25:57.901Z,4.00
2019-02-24T23:28:27.024Z,4.00
2019-02-24T23:30:56.082Z,3.90
2019-02-24T23:33:25.218Z,3.90
2019-02-24T23:35:54.489Z,3.90
2019-02-24T23:38:23.565Z,3.90
2019-02-24T23:40:52.715Z,3.90
2019-02-24T23:43:21.904Z,3.80
2019-02-24T23:45:50.956Z,3.70
2019-02-24T23:48:20.146Z,3.60
2019-02-24T23:50:49.179Z,3.60
2019-02-24T23:53:18.261Z,3.70
2019-02-24T23:55:47.816Z,3.70
2019-02-24T23:58:16.964Z,3.60
